Time;durP1;ratioP1;P1;durP2;ratioP2;P2;SDS_P1;SDS_P2;PMS_P1;PMS_P2;Temp;Humidity;BMP_temperature;BMP_pressure;BME280_temperature;BME280_humidity;BME280_pressure;Samples;Min_cycle;Max_cycle;Signal;HPM_P1;HPM_P2
2024/02/26 00:00:15;;;;;;;6.80;4.40;;;;;;;9.08;71.99;98717.41;105837;1254;74813;-28
2024/02/26 00:02:42;;;;;;;8.80;4.10;;;;;;;8.81;73.00;98711.96;105665;1252;72505;-27
2024/02/26 00:05:10;;;;;;;5.60;3.20;;;;;;;8.80;73.55;98711.66;106011;1251;61150;-27
2024/02/26 00:07:38;;;;;;;7.80;3.60;;;;;;;9.28;71.70;98710.76;105791;1261;61089;-28
2024/02/26 00:10:06;;;;;;;7.90;4.10;;;;;;;9.39;70.91;98713.52;105919;1254;72870;-27
2024/02/26 00:12:34;;;;;;;5.00;3.10;;;;;;;9.17;71.66;98709.45;105633;1257;73525;-27
2024/02/26 00:15:01;;;;;;;9.40;4.00;;;;;;;8.85;72.55;98709.20;105928;1254;72517;-28
2024/02/26 00:17:28;;;;;;;5.10;3.20;;;;;;;8.94;72.88;98707.13;105811;1251;61716;-28
2024/02/26 00:19:55;;;;;;;7.10;3.80;;;;;;;9.27;71.21;98705.52;105938;1257;61192;-28
2024/02/26 00:22:22;;;;;;;9.30;4.10;;;;;;;9.38;70.33;98703.27;105997;1254;72702;-27
2024/02/26 00:24:49;;;;;;;8.10;3.40;;;;;;;9.27;70.69;98701.58;106005;1254;74375;-28
2024/02/26 00:27:17;;;;;;;10.10;4.30;;;;;;;9.05;71.29;98699.84;106004;1254;72300;-28
2024/02/26 00:29:44;;;;;;;6.80;3.70;;;;;;;8.85;72.06;98696.06;105834;1251;61221;-28
2024/02/26 00:32:11;;;;;;;12.30;2.90;;;;;;;9.06;71.56;98694.74;106000;1252;61047;-28
2024/02/26 00:34:38;;;;;;;6.60;3.90;;;;;;;9.30;70.13;98691.02;106001;1252;72778;-27
2024/02/26 00:37:05;;;;;;;9.10;5.00;;;;;;;9.40;69.62;98683.70;105847;1254;74377;-28
2024/02/26 00:39:32;;;;;;;8.60;4.20;;;;;;;9.22;70.05;98681.84;105969;1252;72718;-28
2024/02/26 00:41:59;;;;;;;7.60;4.60;;;;;;;8.99;70.74;98682.14;105854;1250;61156;-28
2024/02/26 00:44:26;;;;;;;6.40;3.40;;;;;;;8.69;71.65;98676.52;105913;1254;61167;-28
2024/02/26 00:46:53;;;;;;;7.50;3.50;;;;;;;8.93;71.64;98674.46;105947;1254;73071;-28
2024/02/26 00:49:20;;;;;;;7.20;4.40;;;;;;;9.27;69.97;98678.34;106020;1252;73362;-28
2024/02/26 00:51:47;;;;;;;7.90;4.10;;;;;;;9.21;69.98;98673.77;105828;1257;72333;-28
2024/02/26 00:54:14;;;;;;;6.70;4.40;;;;;;;8.97;70.57;98658.76;105856;1251;61488;-27
2024/02/26 00:56:41;;;;;;;9.60;5.50;;;;;;;8.64;71.42;98651.71;105931;1253;61221;-27
2024/02/26 00:59:08;;;;;;;5.70;4.00;;;;;;;8.51;71.98;98642.27;105988;1252;72743;-28
2024/02/26 01:01:36;;;;;;;11.20;5.30;;;;;;;8.91;70.63;98644.33;105938;1252;74619;-27
2024/02/26 01:04:03;;;;;;;11.40;6.00;;;;;;;9.12;69.61;98654.08;105803;1257;71506;-27
2024/02/26 01:06:31;;;;;;;9.00;3.20;;;;;;;8.85;70.23;98656.80;105874;1253;61073;-27
2024/02/26 01:08:59;;;;;;;8.80;4.30;;;;;;;8.74;70.80;98659.52;105921;1255;61099;-28
2024/02/26 01:11:26;;;;;;;7.50;4.20;;;;;;;8.50;71.90;98661.62;105890;1251;73731;-28
2024/02/26 01:13:56;;;;;;;7.30;3.90;;;;;;;9.00;70.71;98663.52;105967;1254;74705;-27
2024/02/26 01:16:23;;;;;;;6.60;3.40;;;;;;;9.12;69.42;98661.50;105988;1256;71538;-27
2024/02/26 01:18:51;;;;;;;6.70;4.20;;;;;;;8.99;69.76;98662.92;105938;1257;61191;-27
2024/02/26 01:21:18;;;;;;;9.70;4.40;;;;;;;8.68;70.92;98665.39;105768;1257;61089;-28
2024/02/26 01:23:46;;;;;;;10.70;3.90;;;;;;;8.50;71.39;98669.36;105836;1255;73737;-28
2024/02/26 01:26:13;;;;;;;9.10;2.80;;;;;;;8.79;71.22;98674.91;105825;1257;74380;-28
2024/02/26 01:28:40;;;;;;;7.20;3.70;;;;;;;9.18;69.40;98680.05;105703;1257;72607;-28
2024/02/26 01:31:09;;;;;;;7.60;3.70;;;;;;;9.16;69.22;98673.64;105702;1251;61045;-28
2024/02/26 01:33:36;;;;;;;6.90;3.70;;;;;;;9.04;69.47;98679.80;105974;1255;60994;-28
2024/02/26 01:36:04;;;;;;;8.00;3.70;;;;;;;8.85;70.18;98678.73;105909;1252;73771;-28
2024/02/26 01:38:31;;;;;;;7.10;3.90;;;;;;;8.49;70.99;98674.98;105734;1256;74324;-27
2024/02/26 01:40:58;;;;;;;15.00;4.30;;;;;;;8.85;70.35;98672.65;105868;1251;72624;-28
2024/02/26 01:43:25;;;;;;;9.10;4.70;;;;;;;9.19;68.82;98671.39;105951;1252;61150;-28
2024/02/26 01:45:52;;;;;;;8.90;4.00;;;;;;;9.07;69.09;98663.45;105997;1254;61121;-28
2024/02/26 01:48:19;;;;;;;6.60;3.60;;;;;;;8.86;69.55;98662.90;106002;1256;73726;-28
2024/02/26 01:50:47;;;;;;;5.90;3.60;;;;;;;8.56;70.15;98659.37;105894;1256;74288;-28
2024/02/26 01:53:14;;;;;;;6.20;3.50;;;;;;;8.34;71.10;98661.23;105893;1254;72603;-29
2024/02/26 01:55:41;;;;;;;4.70;3.50;;;;;;;8.80;69.88;98667.90;105885;1257;61232;-29
2024/02/26 01:58:08;;;;;;;7.30;3.20;;;;;;;8.91;69.30;98667.56;105910;1255;61247;-29
2024/02/26 02:00:36;;;;;;;7.80;3.70;;;;;;;8.80;69.18;98670.70;106011;1254;73707;-29
2024/02/26 02:03:03;;;;;;;5.70;3.20;;;;;;;8.71;69.48;98670.00;105965;1258;74161;-29
2024/02/26 02:05:31;;;;;;;5.10;3.20;;;;;;;8.43;70.16;98666.80;105761;1251;73208;-28
2024/02/26 02:07:58;;;;;;;4.50;2.80;;;;;;;8.58;70.31;98661.46;105746;1252;61120;-28
2024/02/26 02:10:26;;;;;;;5.40;3.40;;;;;;;8.85;68.71;98664.73;105647;1262;61140;-29
2024/02/26 02:12:53;;;;;;;9.20;3.20;;;;;;;8.92;68.36;98669.89;105797;1257;73705;-28
2024/02/26 02:15:21;;;;;;;6.80;3.60;;;;;;;8.73;68.84;98671.55;105956;1255;74359;-28
2024/02/26 02:17:49;;;;;;;7.80;3.50;;;;;;;8.62;68.98;98676.58;105686;1251;72506;-28
2024/02/26 02:20:20;;;;;;;8.50;3.10;;;;;;;8.46;69.63;98677.27;105714;1258;61100;-29
2024/02/26 02:22:48;;;;;;;4.30;2.80;;;;;;;8.61;69.78;98675.91;105627;1259;61191;-28
2024/02/26 02:25:15;;;;;;;7.70;2.80;;;;;;;8.99;68.14;98676.21;105942;1255;73822;-29
2024/02/26 02:27:42;;;;;;;6.50;3.30;;;;;;;9.00;67.35;98672.50;105897;1255;74287;-28
2024/02/26 02:30:10;;;;;;;4.10;2.20;;;;;;;8.86;67.98;98669.81;105841;1250;72688;-28
2024/02/26 02:32:38;;;;;;;5.90;2.60;;;;;;;8.68;68.31;98670.20;105598;1253;62137;-28
2024/02/26 02:35:06;;;;;;;7.60;3.70;;;;;;;8.54;68.79;98670.62;105423;1251;61202;-29
2024/02/26 02:37:34;;;;;;;7.00;3.20;;;;;;;8.36;69.77;98675.45;105745;1257;71607;-28
2024/02/26 02:40:01;;;;;;;6.20;3.00;;;;;;;8.80;68.72;98681.05;105937;1256;74093;-28
2024/02/26 02:42:29;;;;;;;4.30;3.10;;;;;;;8.97;67.62;98690.59;105982;1257;73282;-28
2024/02/26 02:44:56;;;;;;;6.10;3.20;;;;;;;8.84;67.73;98689.09;105843;1257;61091;-28
2024/02/26 02:47:23;;;;;;;7.10;4.10;;;;;;;8.62;68.30;98692.81;105921;1257;61118;-28
2024/02/26 02:49:51;;;;;;;4.60;2.50;;;;;;;8.50;68.80;98695.52;105820;1251;74662;-28
2024/02/26 02:52:18;;;;;;;4.60;2.50;;;;;;;8.47;69.17;98699.52;105855;1257;74270;-28
2024/02/26 02:54:46;;;;;;;6.00;3.20;;;;;;;8.90;67.93;98703.48;105842;1255;73304;-28
2024/02/26 02:57:13;;;;;;;10.00;4.20;;;;;;;9.02;67.21;98698.84;105931;1257;61152;-28
2024/02/26 02:59:41;;;;;;;6.40;3.60;;;;;;;8.90;67.41;98693.27;105823;1254;61474;-28
2024/02/26 03:02:08;;;;;;;8.10;3.60;;;;;;;8.62;68.04;98696.98;105842;1255;74379;-28
2024/02/26 03:04:35;;;;;;;8.70;3.90;;;;;;;8.36;68.80;98698.50;105911;1252;74361;-28
2024/02/26 03:07:03;;;;;;;6.90;2.70;;;;;;;8.45;69.32;98699.00;105819;1257;72562;-28
2024/02/26 03:09:30;;;;;;;6.60;3.20;;;;;;;9.01;67.42;98705.54;105896;1251;61124;-28
2024/02/26 03:11:57;;;;;;;8.10;3.20;;;;;;;9.16;66.53;98710.39;105925;1256;61048;-28
2024/02/26 03:14:25;;;;;;;6.40;3.50;;;;;;;8.91;66.84;98700.41;105953;1254;73731;-28
2024/02/26 03:16:56;;;;;;;9.40;3.30;;;;;;;8.72;67.30;98706.97;105959;1252;74192;-28
2024/02/26 03:19:23;;;;;;;7.00;3.40;;;;;;;8.55;67.98;98704.25;105962;1251;72747;-28
2024/02/26 03:21:53;;;;;;;10.40;4.10;;;;;;;8.33;68.41;98697.46;105794;1256;61140;-27
2024/02/26 03:24:20;;;;;;;7.20;3.40;;;;;;;8.44;68.93;98700.76;105933;1254;61121;-28
2024/02/26 03:27:54;;;;;;;5.30;3.50;;;;;;;8.71;67.37;98706.01;102725;1289;600633;-26
2024/02/26 03:30:22;;;;;;;5.90;3.30;;;;;;;8.91;66.90;98704.10;104785;1267;61078;-27
2024/02/26 03:32:50;;;;;;;10.90;3.20;;;;;;;8.65;67.25;98704.92;104851;1269;61192;-28
2024/02/26 03:35:18;;;;;;;6.80;3.20;;;;;;;8.24;67.84;98699.42;104837;1269;72208;-28
2024/02/26 03:37:47;;;;;;;13.70;3.50;;;;;;;8.04;68.80;98699.99;104836;1270;74278;-28
2024/02/26 03:40:15;;;;;;;6.20;2.90;;;;;;;8.45;68.02;98705.52;104882;1267;72632;-25
2024/02/26 03:42:43;;;;;;;7.80;3.40;;;;;;;8.78;66.33;98702.70;105037;1263;185139;-25
2024/02/26 03:51:44;;;;;;;9.10;3.30;;;;;;;8.23;67.52;98706.73;102673;1295;599522;-24
2024/02/26 03:54:12;;;;;;;8.30;2.90;;;;;;;8.13;67.88;98705.60;104884;1267;61159;-24
2024/02/26 03:56:40;;;;;;;5.80;2.20;;;;;;;8.33;67.48;98705.11;105613;1254;61177;-24
2024/02/26 03:59:08;;;;;;;7.20;2.60;;;;;;;8.67;65.89;98700.58;105632;1260;72311;-24
2024/02/26 04:01:35;;;;;;;5.20;3.20;;;;;;;8.74;65.06;98698.13;105600;1260;74320;-24
2024/02/26 04:04:03;;;;;;;5.20;3.60;;;;;;;8.51;65.52;98694.23;105588;1257;72649;-24
2024/02/26 04:06:32;;;;;;;7.40;3.80;;;;;;;8.28;66.34;98699.95;105572;1258;220088;-25
2024/02/26 04:09:00;;;;;;;8.20;3.50;;;;;;;8.15;66.75;98702.52;105670;1253;61240;-25
2024/02/26 04:19:05;;;;;;;7.20;3.00;;;;;;;8.41;66.09;98691.84;102735;1292;600004;-25
2024/02/26 04:21:34;;;;;;;4.50;3.10;;;;;;;8.28;66.46;98693.73;104871;1266;61262;-24
2024/02/26 04:24:02;;;;;;;9.60;3.90;;;;;;;8.02;67.12;98696.56;104861;1268;61727;-24
2024/02/26 04:26:30;;;;;;;8.50;3.70;;;;;;;7.76;68.29;98700.97;104884;1270;72157;-27
2024/02/26 04:28:58;;;;;;;6.50;3.10;;;;;;;8.22;67.23;98699.39;104884;1269;73213;-27
2024/02/26 04:31:26;;;;;;;7.00;3.30;;;;;;;8.47;65.92;98702.42;104904;1265;72705;-27
2024/02/26 04:33:54;;;;;;;8.40;3.20;;;;;;;8.36;66.20;98693.14;105533;1257;178391;-27
2024/02/26 04:36:23;;;;;;;4.40;3.20;;;;;;;8.23;66.23;98693.05;105706;1257;61077;-27
2024/02/26 04:46:32;;;;;;;7.80;3.70;;;;;;;8.37;65.67;98692.70;102676;1298;598948;-25
2024/02/26 04:49:00;;;;;;;5.80;3.80;;;;;;;8.40;65.26;98693.88;104799;1268;61084;-25
2024/02/26 04:51:28;;;;;;;6.70;3.00;;;;;;;8.17;65.90;98689.50;104816;1270;61120;-28
2024/02/26 04:53:56;;;;;;;8.80;3.20;;;;;;;8.06;66.55;98689.52;104877;1267;72204;-26
2024/02/26 04:56:24;;;;;;;4.50;2.60;;;;;;;7.88;66.93;98692.09;104970;1268;74266;-26
2024/02/26 04:58:52;;;;;;;7.20;3.00;;;;;;;7.66;67.83;98689.09;104735;1267;71938;-28
2024/02/26 05:01:20;;;;;;;8.00;3.90;;;;;;;8.25;66.60;98691.30;104904;1268;193629;-25
2024/02/26 05:11:25;;;;;;;10.20;4.20;;;;;;;7.90;66.99;98696.80;103101;1287;600174;-27
2024/02/26 05:13:53;;;;;;;7.10;2.60;;;;;;;7.66;67.75;98693.73;104832;1266;61213;-27
2024/02/26 05:16:24;;;;;;;4.00;2.70;;;;;;;7.80;67.73;98694.23;104850;1268;61187;-27
2024/02/26 05:18:52;;;;;;;6.90;4.10;;;;;;;8.25;65.93;98691.70;104810;1272;70944;-24
2024/02/26 05:21:20;;;;;;;8.90;4.20;;;;;;;8.22;65.50;98687.80;105175;1263;74440;-25
2024/02/26 05:23:49;;;;;;;9.20;3.90;;;;;;;8.03;65.96;98679.89;105068;1265;72706;-25
2024/02/26 05:26:23;;;;;;;10.90;4.10;;;;;;;7.80;66.81;98687.70;105048;1263;205044;-27
2024/02/26 05:28:51;;;;;;;8.40;4.00;;;;;;;7.58;67.91;98691.53;105245;1259;61199;-27
2024/02/26 05:31:19;;;;;;;4.40;2.80;;;;;;;7.56;68.26;98694.45;105234;1260;71062;-27
2024/02/26 05:33:47;;;;;;;9.60;3.30;;;;;;;7.79;67.94;98693.61;105233;1266;73152;-27
2024/02/26 05:36:22;;;;;;;7.90;3.60;;;;;;;8.22;66.44;98698.13;105277;1261;72721;-27
2024/02/26 05:38:50;;;;;;;7.10;3.40;;;;;;;8.29;65.97;98699.85;105264;1260;61066;-27
2024/02/26 05:48:57;;;;;;;6.10;2.70;;;;;;;7.90;68.28;98695.89;102707;1291;599100;-28
2024/02/26 05:51:25;;;;;;;9.80;3.90;;;;;;;8.05;66.99;98694.41;104792;1267;61253;-27
2024/02/26 05:53:54;;;;;;;8.20;3.70;;;;;;;8.12;66.82;98696.29;104810;1273;61202;-26
2024/02/26 05:56:23;;;;;;;5.40;3.40;;;;;;;7.99;67.35;98695.44;104920;1269;72211;-26
2024/02/26 05:58:51;;;;;;;8.30;4.10;;;;;;;7.75;67.77;98695.13;104804;1270;73057;-26
2024/02/26 06:01:20;;;;;;;6.20;2.60;;;;;;;7.49;68.76;98693.94;104873;1271;72650;-26
2024/02/26 06:03:48;;;;;;;10.40;3.90;;;;;;;7.77;68.74;98698.80;104801;1269;193043;-27
2024/02/26 06:06:16;;;;;;;9.90;4.50;;;;;;;8.09;67.29;98703.12;105198;1269;61173;-27
2024/02/26 06:08:45;;;;;;;5.50;3.20;;;;;;;8.11;67.12;98700.54;104813;1270;71005;-27
2024/02/26 06:11:13;;;;;;;7.70;3.80;;;;;;;7.97;67.65;98706.48;105086;1269;74322;-27
2024/02/26 06:21:17;;;;;;;6.70;4.70;;;;;;;8.16;67.24;98708.32;102734;1295;600059;-25
2024/02/26 06:23:45;;;;;;;8.70;4.00;;;;;;;8.06;67.21;98709.92;105704;1260;61165;-26
2024/02/26 06:26:13;;;;;;;3.90;3.00;;;;;;;8.20;67.25;98717.67;109448;1254;58802;-26
2024/02/26 06:28:41;;;;;;;10.50;3.60;;;;;;;7.88;68.18;98713.16;109426;1253;72259;-27
2024/02/26 06:31:09;;;;;;;8.30;3.70;;;;;;;7.85;68.98;98715.14;109375;1254;74321;-27
2024/02/26 06:33:37;;;;;;;7.80;3.60;;;;;;;8.33;67.84;98720.81;109294;1255;74827;-26
2024/02/26 06:36:05;;;;;;;7.70;3.90;;;;;;;8.66;66.30;98723.14;109235;1251;239827;-27
2024/02/26 06:38:34;;;;;;;9.30;3.70;;;;;;;8.46;66.54;98719.66;109651;1251;58772;-31
2024/02/26 06:41:03;;;;;;;8.30;4.80;;;;;;;8.29;67.01;98716.13;109604;1251;71001;-27
2024/02/26 06:43:31;;;;;;;10.00;4.20;;;;;;;8.15;67.51;98719.43;109525;1250;75255;-27
2024/02/26 06:45:58;;;;;;;12.20;4.20;;;;;;;8.16;67.98;98717.23;109613;1251;72657;-27
2024/02/26 06:48:26;;;;;;;7.90;3.70;;;;;;;8.29;68.19;98718.52;109602;1251;60517;-27
2024/02/26 06:50:54;;;;;;;6.70;3.60;;;;;;;8.79;66.38;98717.61;109628;1251;59484;-27
2024/02/26 06:53:22;;;;;;;13.40;5.00;;;;;;;8.77;65.97;98719.04;109465;1250;73041;-28
2024/02/26 06:55:51;;;;;;;7.30;4.20;;;;;;;8.49;67.01;98717.85;109613;1250;75550;-26
2024/02/26 06:58:19;;;;;;;9.00;4.10;;;;;;;8.31;67.29;98718.55;109607;1251;74773;-25
2024/02/26 07:00:47;;;;;;;7.90;4.60;;;;;;;8.30;68.15;98721.77;109548;1251;61209;-27
2024/02/26 07:03:15;;;;;;;8.50;4.10;;;;;;;8.09;68.57;98721.11;109635;1251;61458;-27
2024/02/26 07:05:45;;;;;;;7.10;3.30;;;;;;;8.32;68.22;98717.05;109598;1251;75302;-27
2024/02/26 07:08:13;;;;;;;8.90;3.90;;;;;;;8.81;66.79;98720.41;109612;1251;78261;-27
2024/02/26 07:10:41;;;;;;;11.30;4.50;;;;;;;8.80;66.43;98715.35;109465;1254;74566;-27
2024/02/26 07:13:09;;;;;;;5.90;3.40;;;;;;;8.68;66.44;98718.48;109488;1253;61201;-27
2024/02/26 07:15:37;;;;;;;5.40;3.20;;;;;;;8.75;66.52;98720.41;109389;1251;63417;-27
2024/02/26 07:18:05;;;;;;;7.20;3.70;;;;;;;8.85;65.28;98714.57;109529;1251;74722;-27
2024/02/26 07:20:33;;;;;;;5.50;3.50;;;;;;;8.46;66.86;98713.61;109502;1251;76862;-27
2024/02/26 07:23:01;;;;;;;8.90;3.80;;;;;;;8.71;66.52;98719.11;109530;1251;74615;-27
2024/02/26 07:25:29;;;;;;;7.70;3.20;;;;;;;9.16;65.02;98722.17;109480;1253;62304;-27
2024/02/26 07:27:57;;;;;;;5.00;3.10;;;;;;;9.15;64.50;98730.70;109521;1251;62249;-27
2024/02/26 07:30:24;;;;;;;9.90;3.80;;;;;;;9.11;64.59;98732.77;109400;1251;73024;-27
2024/02/26 07:32:53;;;;;;;10.20;4.00;;;;;;;8.95;64.90;98728.31;109462;1254;74793;-27
2024/02/26 07:35:21;;;;;;;14.20;4.20;;;;;;;8.88;65.35;98731.98;109467;1253;74931;-27
2024/02/26 07:37:50;;;;;;;8.80;4.00;;;;;;;8.82;65.49;98727.45;109479;1251;62367;-27
2024/02/26 07:40:18;;;;;;;8.10;3.60;;;;;;;8.73;66.11;98726.56;109483;1251;59984;-27
2024/02/26 07:42:46;;;;;;;8.60;3.70;;;;;;;9.28;64.69;98728.25;109435;1251;75300;-27
2024/02/26 07:45:15;;;;;;;11.70;4.70;;;;;;;9.54;63.80;98732.77;109516;1251;76799;-28
2024/02/26 07:47:43;;;;;;;5.40;3.00;;;;;;;9.57;63.39;98737.91;109312;1251;75300;-27
2024/02/26 07:50:11;;;;;;;10.90;4.50;;;;;;;9.19;64.16;98741.28;109472;1251;62384;-27
2024/02/26 07:52:40;;;;;;;8.30;4.10;;;;;;;9.22;64.34;98749.74;109601;1251;60038;-27
2024/02/26 07:55:08;;;;;;;11.30;4.50;;;;;;;9.11;64.95;98748.88;109450;1251;75279;-27
2024/02/26 07:57:36;;;;;;;12.60;6.10;;;;;;;9.05;65.38;98746.44;109519;1251;76308;-27
2024/02/26 08:00:07;;;;;;;8.00;4.00;;;;;;;8.91;66.10;98743.89;109394;1251;75183;-27
2024/02/26 08:02:36;;;;;;;9.90;4.90;;;;;;;9.29;65.06;98739.17;109253;1253;61402;-27
2024/02/26 08:05:06;;;;;;;11.00;5.10;;;;;;;9.67;64.62;98743.05;109335;1251;62299;-27
2024/02/26 08:07:34;;;;;;;12.10;6.20;;;;;;;9.74;64.35;98743.81;109423;1252;73778;-27
2024/02/26 08:10:02;;;;;;;11.10;6.10;;;;;;;9.52;64.54;98738.61;109444;1253;74137;-27
2024/02/26 08:12:30;;;;;;;11.60;5.80;;;;;;;9.38;65.71;98745.14;109376;1254;73831;-27
2024/02/26 08:14:58;;;;;;;10.60;6.00;;;;;;;9.08;66.93;98742.91;109463;1254;59872;-27
2024/02/26 08:17:27;;;;;;;12.70;6.40;;;;;;;8.83;68.22;98746.40;109406;1254;61126;-27
2024/02/26 08:19:54;;;;;;;10.90;5.80;;;;;;;9.40;67.01;98756.79;109547;1253;75077;-27
2024/02/26 08:22:22;;;;;;;9.20;5.40;;;;;;;9.68;65.80;98766.44;109439;1253;75546;-26
2024/02/26 08:24:50;;;;;;;12.30;5.30;;;;;;;9.58;65.83;98766.96;109450;1253;72132;-27
2024/02/26 08:27:18;;;;;;;9.40;5.10;;;;;;;9.38;66.48;98764.78;109362;1253;59045;-27
2024/02/26 08:29:49;;;;;;;13.70;6.50;;;;;;;9.21;67.27;98753.60;109392;1253;62233;-26
2024/02/26 08:32:17;;;;;;;19.70;8.60;;;;;;;8.93;67.48;98753.03;109411;1253;75330;-27
2024/02/26 08:34:44;;;;;;;9.70;5.70;;;;;;;8.80;68.41;98748.22;109444;1253;74446;-27
2024/02/26 08:37:12;;;;;;;11.00;6.10;;;;;;;9.17;66.78;98743.89;109416;1252;75047;-27
2024/02/26 08:39:40;;;;;;;12.30;6.70;;;;;;;9.31;66.21;98753.36;109433;1254;63600;-27
2024/02/26 08:42:08;;;;;;;11.80;7.10;;;;;;;9.28;66.26;98748.57;109346;1253;60806;-27
2024/02/26 08:44:36;;;;;;;12.40;6.50;;;;;;;9.15;67.07;98751.32;109354;1253;73782;-27
2024/02/26 08:47:04;;;;;;;12.80;5.50;;;;;;;9.01;67.28;98747.05;109488;1254;76734;-26
2024/02/26 08:49:32;;;;;;;7.90;4.90;;;;;;;8.97;67.53;98746.54;109474;1253;75009;-26
2024/02/26 08:52:00;;;;;;;8.70;5.50;;;;;;;9.17;67.13;98744.07;109395;1253;62372;-26
2024/02/26 08:54:28;;;;;;;8.00;4.00;;;;;;;9.71;65.14;98743.39;109386;1253;59518;-26
2024/02/26 08:56:56;;;;;;;9.70;6.00;;;;;;;9.64;64.72;98750.39;109409;1254;75460;-26
2024/02/26 08:59:24;;;;;;;9.70;4.80;;;;;;;9.49;64.96;98746.04;109373;1253;75495;-26
2024/02/26 09:01:52;;;;;;;9.90;5.70;;;;;;;9.47;65.07;98751.38;109389;1253;74580;-26
2024/02/26 09:04:20;;;;;;;11.70;4.50;;;;;;;9.41;65.74;98749.95;109366;1254;61041;-26
2024/02/26 09:06:48;;;;;;;13.00;6.40;;;;;;;9.36;65.85;98747.61;109410;1253;62107;-27
2024/02/26 09:09:16;;;;;;;10.10;5.40;;;;;;;9.24;66.39;98747.33;109434;1253;73802;-28
2024/02/26 09:11:44;;;;;;;11.20;4.90;;;;;;;9.70;64.69;98757.86;109439;1253;76254;-27
2024/02/26 09:14:12;;;;;;;8.10;4.80;;;;;;;9.77;64.33;98757.41;109383;1253;76201;-27
2024/02/26 09:16:40;;;;;;;11.30;5.10;;;;;;;9.52;65.01;98764.30;109204;1253;63507;-27
2024/02/26 09:19:08;;;;;;;12.50;5.20;;;;;;;9.32;65.17;98760.16;109418;1253;62164;-27
2024/02/26 09:21:36;;;;;;;9.90;5.50;;;;;;;9.26;65.84;98768.66;109254;1257;73979;-27
2024/02/26 09:24:04;;;;;;;12.30;5.60;;;;;;;9.20;65.90;98771.08;109431;1253;75450;-26
2024/02/26 09:26:32;;;;;;;7.70;3.90;;;;;;;9.04;66.83;98766.73;109396;1257;73761;-26
2024/02/26 09:29:00;;;;;;;9.90;4.30;;;;;;;9.51;65.45;98769.58;109572;1253;60426;-26
2024/02/26 09:31:28;;;;;;;11.60;5.00;;;;;;;9.71;64.44;98770.18;109415;1253;61407;-26
2024/02/26 09:33:55;;;;;;;10.70;4.90;;;;;;;9.77;64.00;98766.41;109424;1253;75424;-26
2024/02/26 09:36:29;;;;;;;13.00;5.80;;;;;;;9.58;65.01;98775.08;109286;1253;76724;-26
2024/02/26 09:38:57;;;;;;;7.10;4.40;;;;;;;9.53;65.57;98776.69;109283;1253;72781;-27
2024/02/26 09:41:29;;;;;;;11.20;5.20;;;;;;;9.43;65.95;98766.81;109231;1254;63417;-26
2024/02/26 09:43:57;;;;;;;10.90;6.00;;;;;;;9.33;67.10;98763.41;109394;1253;62401;-26
2024/02/26 09:46:25;;;;;;;7.40;4.50;;;;;;;10.06;65.58;98758.11;109578;1253;75124;-27
2024/02/26 09:48:53;;;;;;;10.50;5.70;;;;;;;10.46;63.35;98754.83;109476;1253;76265;-26
2024/02/26 09:51:24;;;;;;;14.40;5.30;;;;;;;10.38;63.48;98750.62;109238;1253;74987;-27
2024/02/26 09:53:53;;;;;;;11.00;5.00;;;;;;;10.42;63.24;98748.09;109390;1253;61090;-26
2024/02/26 09:56:21;;;;;;;7.70;5.00;;;;;;;10.39;63.58;98743.80;109422;1253;61042;-26
2024/02/26 09:58:53;;;;;;;10.00;5.90;;;;;;;10.19;64.07;98741.23;109581;1253;75508;-26
2024/02/26 10:01:21;;;;;;;14.30;6.60;;;;;;;10.18;64.04;98740.46;109218;1253;75320;-26
2024/02/26 10:03:52;;;;;;;14.30;5.30;;;;;;;10.19;63.86;98740.20;109208;1253;74875;-26
2024/02/26 10:06:20;;;;;;;14.80;4.90;;;;;;;9.99;64.54;98741.36;109133;1257;61485;-26
2024/02/26 10:08:48;;;;;;;19.60;6.00;;;;;;;10.41;63.00;98748.48;109452;1253;62070;-26
2024/02/26 10:11:17;;;;;;;12.90;5.80;;;;;;;10.53;61.98;98743.52;109246;1253;75107;-27
2024/02/26 10:13:44;;;;;;;9.80;5.30;;;;;;;10.47;62.07;98743.10;109157;1253;76397;-27
2024/02/26 10:16:12;;;;;;;7.20;4.40;;;;;;;10.45;62.91;98745.52;109368;1253;75044;-26
2024/02/26 10:18:47;;;;;;;8.80;5.00;;;;;;;10.19;63.19;98746.30;109174;1253;62112;-26
2024/02/26 10:21:21;;;;;;;14.80;5.70;;;;;;;9.91;63.90;98747.23;109260;1253;62277;-26
2024/02/26 10:23:50;;;;;;;14.80;6.30;;;;;;;9.76;64.59;98758.55;109211;1253;75116;-26
2024/02/26 10:26:18;;;;;;;14.50;6.40;;;;;;;9.65;65.33;98757.69;109375;1253;74574;-26
2024/02/26 10:28:46;;;;;;;7.60;4.00;;;;;;;9.93;65.30;98761.80;109423;1252;76112;-26
2024/02/26 10:31:19;;;;;;;;;;;;;;;10.50;63.82;98762.09;109354;1253;61138;-26
2024/02/26 10:33:48;;;;;;;13.50;6.00;;;;;;;10.67;62.84;98762.92;109308;1253;62513;-26
2024/02/26 10:36:17;;;;;;;14.50;5.60;;;;;;;10.51;62.76;98755.44;109176;1253;77269;-27
2024/02/26 10:38:45;;;;;;;10.80;5.60;;;;;;;10.37;63.22;98760.46;109415;1253;76762;-26
2024/02/26 10:41:14;;;;;;;13.00;6.30;;;;;;;10.20;64.09;98760.14;109210;1253;75050;-26
2024/02/26 10:43:43;;;;;;;18.10;6.90;;;;;;;9.96;65.12;98761.45;109125;1253;60392;-26
2024/02/26 10:46:11;;;;;;;11.40;4.30;;;;;;;9.75;66.41;98758.14;109440;1253;61735;-26
2024/02/26 10:48:39;;;;;;;12.40;5.20;;;;;;;10.09;65.47;98762.98;109387;1252;77505;-27
2024/02/26 10:51:09;;;;;;;13.40;5.70;;;;;;;10.57;63.99;98768.10;109217;1253;75154;-26
2024/02/26 10:53:37;;;;;;;16.00;7.00;;;;;;;10.69;62.97;98765.86;109113;1258;75033;-27
2024/02/26 10:56:05;;;;;;;11.10;5.40;;;;;;;10.62;63.72;98766.14;109148;1253;61200;-26
2024/02/26 10:58:33;;;;;;;12.50;6.30;;;;;;;10.45;63.95;98766.17;109215;1253;61151;-26
2024/02/26 11:01:01;;;;;;;10.70;6.60;;;;;;;10.43;63.85;98767.36;109387;1253;76088;-26
2024/02/26 11:03:31;;;;;;;12.40;6.40;;;;;;;10.20;64.31;98760.08;109400;1253;77932;-26
2024/02/26 11:06:00;;;;;;;8.90;4.70;;;;;;;10.00;64.97;98760.40;109468;1253;76287;-26
2024/02/26 11:08:28;;;;;;;13.90;6.00;;;;;;;10.27;64.53;98761.27;109144;1254;61129;-26
2024/02/26 11:10:56;;;;;;;10.80;5.70;;;;;;;10.68;63.36;98769.75;109130;1254;62064;-26
2024/02/26 11:13:27;;;;;;;16.50;7.20;;;;;;;10.81;62.83;98769.31;109149;1254;76301;-26
2024/02/26 11:15:57;;;;;;;11.50;5.50;;;;;;;10.75;62.34;98770.40;109134;1254;77944;-27
2024/02/26 11:18:26;;;;;;;15.60;6.70;;;;;;;10.51;62.95;98772.14;109189;1254;76150;-27
2024/02/26 11:20:57;;;;;;;12.60;6.70;;;;;;;10.34;63.93;98770.07;109097;1254;60522;-26
2024/02/26 11:23:25;;;;;;;16.70;7.80;;;;;;;10.06;65.38;98771.90;109361;1254;62139;-26
2024/02/26 11:25:54;;;;;;;18.30;6.80;;;;;;;9.88;66.75;98777.30;109168;1254;73183;-26
2024/02/26 11:28:22;;;;;;;11.50;6.70;;;;;;;10.60;65.15;98780.73;109176;1254;77110;-27
2024/02/26 11:30:50;;;;;;;13.70;6.90;;;;;;;10.90;63.43;98784.10;109174;1254;75176;-27
2024/02/26 11:33:18;;;;;;;15.70;6.30;;;;;;;11.07;62.90;98785.57;109167;1254;62563;-26
2024/02/26 11:35:46;;;;;;;9.80;6.10;;;;;;;11.00;62.79;98787.38;109167;1254;61051;-26
2024/02/26 11:38:21;;;;;;;14.10;7.50;;;;;;;10.82;63.18;98785.98;109281;1254;75208;-26
2024/02/26 11:40:49;;;;;;;13.20;7.00;;;;;;;10.72;63.81;98789.04;109199;1254;76362;-27
2024/02/26 11:43:17;;;;;;;18.30;8.30;;;;;;;10.49;64.67;98788.63;109179;1254;73307;-26
2024/02/26 11:45:49;;;;;;;17.20;7.60;;;;;;;10.34;65.41;98789.29;109170;1254;62707;-26
2024/02/26 11:48:24;;;;;;;10.20;5.70;;;;;;;10.89;64.21;98791.58;109110;1254;61433;-26
2024/02/26 11:50:54;;;;;;;15.40;6.90;;;;;;;11.22;63.26;98797.09;109135;1254;76138;-26
2024/02/26 11:53:24;;;;;;;13.10;6.80;;;;;;;11.13;62.61;98793.67;109202;1254;77019;-26
2024/02/26 11:56:21;;;;;;;9.30;5.80;;;;;;;10.84;63.50;98782.16;109102;1254;73862;-26
2024/02/26 11:58:53;;;;;;;16.10;6.30;;;;;;;10.62;64.35;98772.42;109100;1254;61375;-26
2024/02/26 12:01:44;;;;;;;13.60;8.00;;;;;;;10.70;64.46;98765.42;109098;1254;62455;-26
2024/02/26 12:04:25;;;;;;;18.00;7.10;;;;;;;10.68;64.38;98761.27;109120;1254;76146;-26
2024/02/26 12:06:56;;;;;;;11.20;5.80;;;;;;;10.57;65.05;98761.00;109181;1255;76670;-26
2024/02/26 12:09:38;;;;;;;13.60;6.10;;;;;;;11.17;63.22;98758.65;109124;1256;74882;-26
2024/02/26 12:12:07;;;;;;;15.60;7.80;;;;;;;11.37;62.51;98764.89;109110;1255;60875;-27
2024/02/26 12:14:40;;;;;;;17.40;8.40;;;;;;;11.48;62.43;98770.52;109139;1255;60095;-26
2024/02/26 12:17:22;;;;;;;12.10;6.10;;;;;;;11.48;62.09;98771.23;109143;1255;76110;-26
2024/02/26 12:19:51;;;;;;;13.60;7.30;;;;;;;11.37;62.39;98768.46;109156;1255;76931;-26